sensor_id;sensor_type;location;lat;lon;timestamp;P1;durP1;ratioP1;P2;durP2;ratioP2
71572;SDS011;59408;51.032;9.410;2022-09-03T00:00:10;4.72;;;1.40;;
71572;SDS011;59408;51.032;9.410;2022-09-03T00:02:39;3.83;;;1.50;;
71572;SDS011;59408;51.032;9.410;2022-09-03T00:05:11;4.70;;;1.85;;
71572;SDS011;59408;51.032;9.410;2022-09-03T00:07:43;3.67;;;1.55;;
71572;SDS011;59408;51.032;9.410;2022-09-03T00:10:18;4.22;;;1.63;;
71572;SDS011;59408;51.032;9.410;2022-09-03T00:12:50;4.30;;;1.67;;
71572;SDS011;59408;51.032;9.410;2022-09-03T00:15:19;4.40;;;1.60;;
71572;SDS011;59408;51.032;9.410;2022-09-03T00:17:48;4.20;;;1.67;;
71572;SDS011;59408;51.032;9.410;2022-09-03T00:20:20;3.78;;;1.40;;
71572;SDS011;59408;51.032;9.410;2022-09-03T00:22:53;4.28;;;1.70;;
71572;SDS011;59408;51.032;9.410;2022-09-03T00:25:23;4.00;;;1.45;;
71572;SDS011;59408;51.032;9.410;2022-09-03T00:27:55;4.88;;;1.60;;
71572;SDS011;59408;51.032;9.410;2022-09-03T00:30:24;5.10;;;2.08;;
71572;SDS011;59408;51.032;9.410;2022-09-03T00:32:51;4.30;;;1.50;;
71572;SDS011;59408;51.032;9.410;2022-09-03T00:35:22;4.00;;;1.60;;
71572;SDS011;59408;51.032;9.410;2022-09-03T00:37:52;4.82;;;1.73;;
71572;SDS011;59408;51.032;9.410;2022-09-03T00:40:24;4.75;;;1.70;;
71572;SDS011;59408;51.032;9.410;2022-09-03T00:43:09;4.72;;;1.50;;
71572;SDS011;59408;51.032;9.410;2022-09-03T00:45:49;7.57;;;1.80;;
71572;SDS011;59408;51.032;9.410;2022-09-03T00:48:23;4.97;;;1.70;;
71572;SDS011;59408;51.032;9.410;2022-09-03T00:51:02;4.40;;;1.50;;
71572;SDS011;59408;51.032;9.410;2022-09-03T00:53:37;4.23;;;1.60;;
71572;SDS011;59408;51.032;9.410;2022-09-03T00:56:12;4.30;;;1.58;;
71572;SDS011;59408;51.032;9.410;2022-09-03T00:58:51;4.82;;;1.55;;
71572;SDS011;59408;51.032;9.410;2022-09-03T01:01:29;3.92;;;1.50;;
71572;SDS011;59408;51.032;9.410;2022-09-03T01:04:05;3.55;;;1.42;;
71572;SDS011;59408;51.032;9.410;2022-09-03T01:06:41;4.50;;;1.75;;
71572;SDS011;59408;51.032;9.410;2022-09-03T01:09:18;4.63;;;1.83;;
71572;SDS011;59408;51.032;9.410;2022-09-03T01:11:57;4.23;;;1.60;;
71572;SDS011;59408;51.032;9.410;2022-09-03T01:14:33;5.23;;;1.60;;
71572;SDS011;59408;51.032;9.410;2022-09-03T01:17:15;4.50;;;1.55;;
71572;SDS011;59408;51.032;9.410;2022-09-03T01:19:55;4.97;;;1.58;;
71572;SDS011;59408;51.032;9.410;2022-09-03T01:25:37;3.70;;;1.67;;
71572;SDS011;59408;51.032;9.410;2022-09-03T01:28:20;5.03;;;1.50;;
71572;SDS011;59408;51.032;9.410;2022-09-03T01:30:54;3.63;;;1.38;;
71572;SDS011;59408;51.032;9.410;2022-09-03T01:33:30;3.63;;;1.37;;
71572;SDS011;59408;51.032;9.410;2022-09-03T01:36:05;4.73;;;1.73;;
71572;SDS011;59408;51.032;9.410;2022-09-03T01:38:38;4.90;;;1.50;;
71572;SDS011;59408;51.032;9.410;2022-09-03T01:41:11;4.20;;;1.50;;
71572;SDS011;59408;51.032;9.410;2022-09-03T01:43:46;4.50;;;1.80;;
71572;SDS011;59408;51.032;9.410;2022-09-03T01:46:22;4.88;;;1.75;;
71572;SDS011;59408;51.032;9.410;2022-09-03T01:48:52;3.65;;;1.70;;
71572;SDS011;59408;51.032;9.410;2022-09-03T01:51:29;4.32;;;1.77;;
71572;SDS011;59408;51.032;9.410;2022-09-03T01:56:55;4.00;;;1.52;;
71572;SDS011;59408;51.032;9.410;2022-09-03T02:00:04;4.57;;;1.90;;
71572;SDS011;59408;51.032;9.410;2022-09-03T02:02:33;4.25;;;1.83;;
71572;SDS011;59408;51.032;9.410;2022-09-03T02:05:00;5.97;;;1.85;;
71572;SDS011;59408;51.032;9.410;2022-09-03T02:07:30;4.80;;;1.80;;
71572;SDS011;59408;51.032;9.410;2022-09-03T02:09:59;4.47;;;1.60;;
71572;SDS011;59408;51.032;9.410;2022-09-03T02:12:28;3.90;;;1.80;;
71572;SDS011;59408;51.032;9.410;2022-09-03T02:14:56;4.70;;;1.55;;
71572;SDS011;59408;51.032;9.410;2022-09-03T02:17:24;5.13;;;1.70;;
71572;SDS011;59408;51.032;9.410;2022-09-03T02:19:51;5.50;;;1.80;;
71572;SDS011;59408;51.032;9.410;2022-09-03T02:22:18;4.53;;;1.70;;
71572;SDS011;59408;51.032;9.410;2022-09-03T02:24:44;4.20;;;1.70;;
71572;SDS011;59408;51.032;9.410;2022-09-03T02:27:11;5.88;;;1.90;;
71572;SDS011;59408;51.032;9.410;2022-09-03T02:29:38;4.43;;;1.80;;
71572;SDS011;59408;51.032;9.410;2022-09-03T02:32:05;4.90;;;2.05;;
71572;SDS011;59408;51.032;9.410;2022-09-03T02:34:33;3.75;;;1.60;;
71572;SDS011;59408;51.032;9.410;2022-09-03T02:36:59;4.60;;;2.10;;
71572;SDS011;59408;51.032;9.410;2022-09-03T02:39:37;3.67;;;1.70;;
71572;SDS011;59408;51.032;9.410;2022-09-03T02:42:04;5.25;;;1.80;;
71572;SDS011;59408;51.032;9.410;2022-09-03T02:44:35;4.40;;;1.77;;
71572;SDS011;59408;51.032;9.410;2022-09-03T02:47:06;4.75;;;1.80;;
71572;SDS011;59408;51.032;9.410;2022-09-03T02:49:35;4.90;;;1.77;;
71572;SDS011;59408;51.032;9.410;2022-09-03T02:52:02;4.50;;;1.80;;
71572;SDS011;59408;51.032;9.410;2022-09-03T02:54:32;4.75;;;1.80;;
71572;SDS011;59408;51.032;9.410;2022-09-03T02:56:59;5.07;;;1.80;;
71572;SDS011;59408;51.032;9.410;2022-09-03T02:59:25;4.90;;;2.00;;
71572;SDS011;59408;51.032;9.410;2022-09-03T03:01:52;4.28;;;1.92;;
71572;SDS011;59408;51.032;9.410;2022-09-03T03:04:19;4.72;;;2.10;;
71572;SDS011;59408;51.032;9.410;2022-09-03T03:06:47;5.00;;;1.88;;
71572;SDS011;59408;51.032;9.410;2022-09-03T03:09:14;4.25;;;1.75;;
71572;SDS011;59408;51.032;9.410;2022-09-03T03:11:40;4.73;;;1.83;;
71572;SDS011;59408;51.032;9.410;2022-09-03T03:14:07;4.30;;;1.70;;
71572;SDS011;59408;51.032;9.410;2022-09-03T03:16:34;4.10;;;1.80;;
71572;SDS011;59408;51.032;9.410;2022-09-03T03:19:01;5.05;;;1.90;;
71572;SDS011;59408;51.032;9.410;2022-09-03T03:21:28;4.60;;;1.85;;
71572;SDS011;59408;51.032;9.410;2022-09-03T03:23:56;4.68;;;1.60;;
71572;SDS011;59408;51.032;9.410;2022-09-03T03:26:22;4.50;;;1.80;;
71572;SDS011;59408;51.032;9.410;2022-09-03T03:28:50;5.35;;;2.00;;
71572;SDS011;59408;51.032;9.410;2022-09-03T03:31:22;5.63;;;2.38;;
71572;SDS011;59408;51.032;9.410;2022-09-03T03:33:49;5.47;;;1.70;;
71572;SDS011;59408;51.032;9.410;2022-09-03T03:36:16;4.70;;;1.73;;
71572;SDS011;59408;51.032;9.410;2022-09-03T03:38:43;5.07;;;1.90;;
71572;SDS011;59408;51.032;9.410;2022-09-03T03:41:12;4.22;;;1.83;;
71572;SDS011;59408;51.032;9.410;2022-09-03T03:43:40;5.25;;;2.03;;
71572;SDS011;59408;51.032;9.410;2022-09-03T03:46:07;6.35;;;1.80;;
71572;SDS011;59408;51.032;9.410;2022-09-03T03:48:33;6.43;;;1.90;;
71572;SDS011;59408;51.032;9.410;2022-09-03T03:51:00;4.80;;;1.95;;
71572;SDS011;59408;51.032;9.410;2022-09-03T03:53:28;5.13;;;1.60;;
71572;SDS011;59408;51.032;9.410;2022-09-03T03:55:55;4.67;;;1.80;;
71572;SDS011;59408;51.032;9.410;2022-09-03T03:58:23;4.40;;;1.60;;
71572;SDS011;59408;51.032;9.410;2022-09-03T04:00:50;4.75;;;1.83;;
71572;SDS011;59408;51.032;9.410;2022-09-03T04:03:18;5.18;;;2.10;;
71572;SDS011;59408;51.032;9.410;2022-09-03T04:05:53;4.80;;;2.05;;
71572;SDS011;59408;51.032;9.410;2022-09-03T04:08:20;4.90;;;1.90;;
71572;SDS011;59408;51.032;9.410;2022-09-03T04:10:47;4.90;;;1.90;;
71572;SDS011;59408;51.032;9.410;2022-09-03T04:13:14;5.18;;;1.80;;
71572;SDS011;59408;51.032;9.410;2022-09-03T04:15:42;4.90;;;1.70;;
71572;SDS011;59408;51.032;9.410;2022-09-03T04:18:09;4.43;;;1.90;;
71572;SDS011;59408;51.032;9.410;2022-09-03T04:20:36;4.22;;;1.83;;
71572;SDS011;59408;51.032;9.410;2022-09-03T04:23:03;4.22;;;1.70;;
71572;SDS011;59408;51.032;9.410;2022-09-03T04:25:30;4.90;;;1.80;;
71572;SDS011;59408;51.032;9.410;2022-09-03T04:27:57;4.22;;;1.60;;
71572;SDS011;59408;51.032;9.410;2022-09-03T04:30:24;4.95;;;1.83;;
71572;SDS011;59408;51.032;9.410;2022-09-03T04:32:52;4.70;;;1.92;;
71572;SDS011;59408;51.032;9.410;2022-09-03T04:35:18;5.03;;;1.80;;
71572;SDS011;59408;51.032;9.410;2022-09-03T04:37:45;4.10;;;1.63;;
71572;SDS011;59408;51.032;9.410;2022-09-03T04:40:12;4.80;;;1.80;;
71572;SDS011;59408;51.032;9.410;2022-09-03T04:42:40;4.00;;;1.80;;
71572;SDS011;59408;51.032;9.410;2022-09-03T04:45:07;4.13;;;1.83;;
71572;SDS011;59408;51.032;9.410;2022-09-03T04:47:34;5.18;;;2.00;;
71572;SDS011;59408;51.032;9.410;2022-09-03T04:50:03;4.68;;;2.28;;
71572;SDS011;59408;51.032;9.410;2022-09-03T04:52:29;5.28;;;2.08;;
71572;SDS011;59408;51.032;9.410;2022-09-03T04:54:56;3.93;;;1.67;;
71572;SDS011;59408;51.032;9.410;2022-09-03T04:57:23;4.80;;;1.77;;
71572;SDS011;59408;51.032;9.410;2022-09-03T04:59:49;4.60;;;1.90;;
71572;SDS011;59408;51.032;9.410;2022-09-03T05:02:16;4.70;;;1.92;;
71572;SDS011;59408;51.032;9.410;2022-09-03T05:04:43;5.28;;;1.73;;
71572;SDS011;59408;51.032;9.410;2022-09-03T05:07:10;5.35;;;2.03;;
71572;SDS011;59408;51.032;9.410;2022-09-03T05:09:37;5.10;;;2.03;;
71572;SDS011;59408;51.032;9.410;2022-09-03T05:12:04;5.47;;;1.90;;
71572;SDS011;59408;51.032;9.410;2022-09-03T05:14:31;4.35;;;1.85;;
71572;SDS011;59408;51.032;9.410;2022-09-03T05:16:58;6.38;;;1.80;;
71572;SDS011;59408;51.032;9.410;2022-09-03T05:19:25;5.40;;;2.40;;
71572;SDS011;59408;51.032;9.410;2022-09-03T05:21:51;4.80;;;2.03;;
71572;SDS011;59408;51.032;9.410;2022-09-03T05:24:19;4.90;;;1.85;;
71572;SDS011;59408;51.032;9.410;2022-09-03T05:26:46;4.65;;;2.03;;
71572;SDS011;59408;51.032;9.410;2022-09-03T05:29:13;4.80;;;2.00;;
71572;SDS011;59408;51.032;9.410;2022-09-03T05:31:39;4.70;;;2.10;;
71572;SDS011;59408;51.032;9.410;2022-09-03T05:34:06;4.60;;;1.90;;
71572;SDS011;59408;51.032;9.410;2022-09-03T05:36:34;5.25;;;2.20;;
71572;SDS011;59408;51.032;9.410;2022-09-03T05:39:02;4.78;;;2.00;;
71572;SDS011;59408;51.032;9.410;2022-09-03T05:41:31;5.28;;;1.95;;
71572;SDS011;59408;51.032;9.410;2022-09-03T05:43:57;5.03;;;2.50;;
71572;SDS011;59408;51.032;9.410;2022-09-03T05:46:25;5.60;;;2.63;;
71572;SDS011;59408;51.032;9.410;2022-09-03T05:48:53;5.00;;;2.00;;
71572;SDS011;59408;51.032;9.410;2022-09-03T05:51:20;5.80;;;2.10;;
71572;SDS011;59408;51.032;9.410;2022-09-03T05:53:47;8.52;;;2.40;;
71572;SDS011;59408;51.032;9.410;2022-09-03T05:56:15;5.60;;;2.17;;
71572;SDS011;59408;51.032;9.410;2022-09-03T05:58:45;5.03;;;2.00;;
71572;SDS011;59408;51.032;9.410;2022-09-03T06:01:13;4.50;;;1.88;;
71572;SDS011;59408;51.032;9.410;2022-09-03T06:03:41;5.53;;;1.77;;
71572;SDS011;59408;51.032;9.410;2022-09-03T06:06:09;5.27;;;1.70;;
71572;SDS011;59408;51.032;9.410;2022-09-03T06:08:36;5.47;;;1.83;;
71572;SDS011;59408;51.032;9.410;2022-09-03T06:11:03;6.15;;;1.73;;
71572;SDS011;59408;51.032;9.410;2022-09-03T06:13:31;4.30;;;1.80;;
71572;SDS011;59408;51.032;9.410;2022-09-03T06:16:01;4.45;;;1.88;;
71572;SDS011;59408;51.032;9.410;2022-09-03T06:18:30;4.63;;;1.65;;
71572;SDS011;59408;51.032;9.410;2022-09-03T06:20:57;4.80;;;1.58;;
71572;SDS011;59408;51.032;9.410;2022-09-03T06:23:26;4.30;;;1.63;;
71572;SDS011;59408;51.032;9.410;2022-09-03T06:26:04;5.27;;;1.83;;
71572;SDS011;59408;51.032;9.410;2022-09-03T06:28:33;4.75;;;1.52;;
71572;SDS011;59408;51.032;9.410;2022-09-03T06:31:03;4.05;;;1.67;;
71572;SDS011;59408;51.032;9.410;2022-09-03T06:33:32;8.10;;;1.73;;
71572;SDS011;59408;51.032;9.410;2022-09-03T06:36:01;3.95;;;1.45;;
71572;SDS011;59408;51.032;9.410;2022-09-03T06:38:34;4.50;;;1.52;;
71572;SDS011;59408;51.032;9.410;2022-09-03T06:41:03;4.97;;;1.67;;
71572;SDS011;59408;51.032;9.410;2022-09-03T06:43:32;5.23;;;1.70;;
71572;SDS011;59408;51.032;9.410;2022-09-03T06:46:00;5.50;;;1.60;;
71572;SDS011;59408;51.032;9.410;2022-09-03T06:48:30;5.95;;;1.60;;
71572;SDS011;59408;51.032;9.410;2022-09-03T06:50:59;5.35;;;1.70;;
71572;SDS011;59408;51.032;9.410;2022-09-03T06:53:27;4.13;;;1.58;;
71572;SDS011;59408;51.032;9.410;2022-09-03T06:55:58;4.97;;;1.40;;
71572;SDS011;59408;51.032;9.410;2022-09-03T06:58:27;3.83;;;1.40;;
71572;SDS011;59408;51.032;9.410;2022-09-03T07:00:59;7.05;;;1.77;;
71572;SDS011;59408;51.032;9.410;2022-09-03T07:03:28;5.20;;;1.70;;
71572;SDS011;59408;51.032;9.410;2022-09-03T07:05:58;4.88;;;1.55;;
71572;SDS011;59408;51.032;9.410;2022-09-03T07:08:25;5.18;;;1.50;;
71572;SDS011;59408;51.032;9.410;2022-09-03T07:10:52;4.85;;;1.88;;
71572;SDS011;59408;51.032;9.410;2022-09-03T07:13:19;4.43;;;1.60;;
71572;SDS011;59408;51.032;9.410;2022-09-03T07:15:45;5.35;;;1.85;;
71572;SDS011;59408;51.032;9.410;2022-09-03T07:18:12;5.00;;;1.80;;
71572;SDS011;59408;51.032;9.410;2022-09-03T07:20:40;4.50;;;1.80;;
71572;SDS011;59408;51.032;9.410;2022-09-03T07:23:06;5.38;;;1.40;;
71572;SDS011;59408;51.032;9.410;2022-09-03T07:25:33;4.63;;;1.40;;
71572;SDS011;59408;51.032;9.410;2022-09-03T07:28:00;4.45;;;1.48;;
71572;SDS011;59408;51.032;9.410;2022-09-03T07:30:27;5.25;;;1.73;;
71572;SDS011;59408;51.032;9.410;2022-09-03T07:32:54;4.13;;;1.60;;
71572;SDS011;59408;51.032;9.410;2022-09-03T07:35:21;5.00;;;1.60;;
71572;SDS011;59408;51.032;9.410;2022-09-03T07:37:49;5.57;;;1.58;;
71572;SDS011;59408;51.032;9.410;2022-09-03T07:40:16;4.75;;;1.63;;
71572;SDS011;59408;51.032;9.410;2022-09-03T07:42:43;4.55;;;1.60;;
71572;SDS011;59408;51.032;9.410;2022-09-03T07:45:09;5.07;;;1.80;;
71572;SDS011;59408;51.032;9.410;2022-09-03T07:47:36;5.45;;;1.90;;
71572;SDS011;59408;51.032;9.410;2022-09-03T07:50:02;4.77;;;1.90;;
71572;SDS011;59408;51.032;9.410;2022-09-03T07:52:30;4.90;;;1.80;;
71572;SDS011;59408;51.032;9.410;2022-09-03T07:54:58;3.90;;;1.60;;
71572;SDS011;59408;51.032;9.410;2022-09-03T07:57:24;4.50;;;1.58;;
71572;SDS011;59408;51.032;9.410;2022-09-03T07:59:51;4.53;;;1.80;;
71572;SDS011;59408;51.032;9.410;2022-09-03T08:02:17;5.35;;;1.80;;
71572;SDS011;59408;51.032;9.410;2022-09-03T08:04:44;4.90;;;1.67;;
71572;SDS011;59408;51.032;9.410;2022-09-03T08:07:11;4.25;;;1.70;;
71572;SDS011;59408;51.032;9.410;2022-09-03T08:09:37;5.15;;;1.65;;
71572;SDS011;59408;51.032;9.410;2022-09-03T08:12:06;4.43;;;1.50;;
71572;SDS011;59408;51.032;9.410;2022-09-03T08:14:33;4.70;;;1.77;;
71572;SDS011;59408;51.032;9.410;2022-09-03T08:16:59;4.22;;;1.85;;
71572;SDS011;59408;51.032;9.410;2022-09-03T08:19:26;4.53;;;1.50;;
71572;SDS011;59408;51.032;9.410;2022-09-03T08:21:52;5.75;;;1.73;;
71572;SDS011;59408;51.032;9.410;2022-09-03T08:24:19;4.10;;;1.70;;
71572;SDS011;59408;51.032;9.410;2022-09-03T08:26:46;5.68;;;1.50;;
71572;SDS011;59408;51.032;9.410;2022-09-03T08:29:18;5.32;;;1.92;;
71572;SDS011;59408;51.032;9.410;2022-09-03T08:31:46;5.70;;;1.80;;
71572;SDS011;59408;51.032;9.410;2022-09-03T08:34:12;4.13;;;2.10;;
71572;SDS011;59408;51.032;9.410;2022-09-03T08:36:39;4.90;;;1.70;;
71572;SDS011;59408;51.032;9.410;2022-09-03T08:39:06;5.75;;;1.70;;
71572;SDS011;59408;51.032;9.410;2022-09-03T08:41:47;4.40;;;1.67;;
71572;SDS011;59408;51.032;9.410;2022-09-03T08:44:36;5.15;;;1.80;;
71572;SDS011;59408;51.032;9.410;2022-09-03T08:47:09;3.70;;;1.40;;
71572;SDS011;59408;51.032;9.410;2022-09-03T08:49:41;3.97;;;1.53;;
71572;SDS011;59408;51.032;9.410;2022-09-03T08:52:15;5.30;;;1.70;;
71572;SDS011;59408;51.032;9.410;2022-09-03T08:54:48;6.03;;;1.98;;
71572;SDS011;59408;51.032;9.410;2022-09-03T08:57:18;5.32;;;1.83;;
71572;SDS011;59408;51.032;9.410;2022-09-03T08:59:47;4.30;;;1.60;;
71572;SDS011;59408;51.032;9.410;2022-09-03T09:02:22;3.90;;;1.70;;
71572;SDS011;59408;51.032;9.410;2022-09-03T09:04:59;6.60;;;1.85;;
71572;SDS011;59408;51.032;9.410;2022-09-03T09:07:35;5.05;;;1.83;;
71572;SDS011;59408;51.032;9.410;2022-09-03T09:10:10;3.67;;;1.77;;
71572;SDS011;59408;51.032;9.410;2022-09-03T09:12:44;5.10;;;2.00;;
71572;SDS011;59408;51.032;9.410;2022-09-03T09:15:22;4.83;;;1.80;;
71572;SDS011;59408;51.032;9.410;2022-09-03T09:18:00;4.77;;;1.80;;
71572;SDS011;59408;51.032;9.410;2022-09-03T09:20:32;5.18;;;1.98;;
71572;SDS011;59408;51.032;9.410;2022-09-03T09:23:06;5.53;;;2.00;;
71572;SDS011;59408;51.032;9.410;2022-09-03T09:25:35;4.70;;;1.50;;
71572;SDS011;59408;51.032;9.410;2022-09-03T09:28:12;4.30;;;1.70;;
71572;SDS011;59408;51.032;9.410;2022-09-03T09:30:44;5.27;;;2.00;;
71572;SDS011;59408;51.032;9.410;2022-09-03T09:33:13;5.73;;;1.90;;
71572;SDS011;59408;51.032;9.410;2022-09-03T09:35:40;4.10;;;1.60;;
71572;SDS011;59408;51.032;9.410;2022-09-03T09:38:07;4.82;;;1.88;;
71572;SDS011;59408;51.032;9.410;2022-09-03T09:40:35;4.18;;;1.67;;
71572;SDS011;59408;51.032;9.410;2022-09-03T09:43:11;4.03;;;1.90;;
71572;SDS011;59408;51.032;9.410;2022-09-03T09:45:39;4.13;;;1.93;;
71572;SDS011;59408;51.032;9.410;2022-09-03T09:48:14;5.35;;;1.63;;
71572;SDS011;59408;51.032;9.410;2022-09-03T09:50:43;5.85;;;1.90;;
71572;SDS011;59408;51.032;9.410;2022-09-03T09:53:10;4.00;;;1.77;;
71572;SDS011;59408;51.032;9.410;2022-09-03T09:55:46;4.65;;;1.65;;
71572;SDS011;59408;51.032;9.410;2022-09-03T09:58:14;4.70;;;1.50;;
71572;SDS011;59408;51.032;9.410;2022-09-03T10:00:53;4.03;;;1.70;;
71572;SDS011;59408;51.032;9.410;2022-09-03T10:03:22;5.05;;;1.60;;
71572;SDS011;59408;51.032;9.410;2022-09-03T10:05:55;4.78;;;1.90;;
71572;SDS011;59408;51.032;9.410;2022-09-03T10:08:26;5.43;;;1.88;;
71572;SDS011;59408;51.032;9.410;2022-09-03T10:10:53;5.32;;;1.58;;
71572;SDS011;59408;51.032;9.410;2022-09-03T10:13:20;4.20;;;1.70;;
71572;SDS011;59408;51.032;9.410;2022-09-03T10:15:50;4.18;;;1.80;;
71572;SDS011;59408;51.032;9.410;2022-09-03T10:18:27;5.07;;;1.90;;
71572;SDS011;59408;51.032;9.410;2022-09-03T10:21:04;4.13;;;1.73;;
71572;SDS011;59408;51.032;9.410;2022-09-03T10:23:39;5.90;;;1.90;;
71572;SDS011;59408;51.032;9.410;2022-09-03T10:26:15;6.30;;;1.80;;
71572;SDS011;59408;51.032;9.410;2022-09-03T10:28:47;5.47;;;1.80;;
71572;SDS011;59408;51.032;9.410;2022-09-03T10:31:36;5.05;;;1.90;;
71572;SDS011;59408;51.032;9.410;2022-09-03T10:34:17;5.70;;;1.80;;
71572;SDS011;59408;51.032;9.410;2022-09-03T10:36:52;4.00;;;1.80;;
71572;SDS011;59408;51.032;9.410;2022-09-03T10:39:30;4.40;;;1.70;;
71572;SDS011;59408;51.032;9.410;2022-09-03T10:42:19;5.37;;;2.03;;
71572;SDS011;59408;51.032;9.410;2022-09-03T10:44:58;5.70;;;2.08;;
71572;SDS011;59408;51.032;9.410;2022-09-03T10:47:43;4.55;;;1.83;;
71572;SDS011;59408;51.032;9.410;2022-09-03T10:50:43;5.47;;;1.80;;
71572;SDS011;59408;51.032;9.410;2022-09-03T10:53:16;5.20;;;2.15;;
71572;SDS011;59408;51.032;9.410;2022-09-03T10:55:56;5.80;;;2.07;;
71572;SDS011;59408;51.032;9.410;2022-09-03T11:01:17;5.47;;;2.17;;
71572;SDS011;59408;51.032;9.410;2022-09-03T11:03:55;4.88;;;2.08;;
71572;SDS011;59408;51.032;9.410;2022-09-03T11:06:40;4.85;;;2.10;;
71572;SDS011;59408;51.032;9.410;2022-09-03T11:09:12;4.50;;;2.07;;
71572;SDS011;59408;51.032;9.410;2022-09-03T11:11:44;5.57;;;1.98;;
71572;SDS011;59408;51.032;9.410;2022-09-03T11:14:14;5.25;;;2.30;;
71572;SDS011;59408;51.032;9.410;2022-09-03T11:16:50;5.30;;;2.10;;
71572;SDS011;59408;51.032;9.410;2022-09-03T11:19:21;4.55;;;2.25;;
71572;SDS011;59408;51.032;9.410;2022-09-03T11:21:59;5.40;;;2.00;;
71572;SDS011;59408;51.032;9.410;2022-09-03T11:24:28;3.92;;;1.80;;
71572;SDS011;59408;51.032;9.410;2022-09-03T11:27:00;5.18;;;1.80;;
71572;SDS011;59408;51.032;9.410;2022-09-03T11:29:33;4.82;;;2.00;;
71572;SDS011;59408;51.032;9.410;2022-09-03T11:32:07;5.03;;;2.20;;
71572;SDS011;59408;51.032;9.410;2022-09-03T11:34:44;4.17;;;1.80;;
71572;SDS011;59408;51.032;9.410;2022-09-03T11:37:19;5.03;;;2.00;;
71572;SDS011;59408;51.032;9.410;2022-09-03T11:39:54;4.47;;;1.90;;
71572;SDS011;59408;51.032;9.410;2022-09-03T11:42:27;4.00;;;1.80;;
71572;SDS011;59408;51.032;9.410;2022-09-03T11:45:10;4.93;;;1.90;;
71572;SDS011;59408;51.032;9.410;2022-09-03T11:47:40;4.70;;;1.70;;
71572;SDS011;59408;51.032;9.410;2022-09-03T11:50:15;4.07;;;1.80;;
71572;SDS011;59408;51.032;9.410;2022-09-03T11:52:45;4.97;;;1.80;;
71572;SDS011;59408;51.032;9.410;2022-09-03T11:55:23;4.22;;;1.60;;
71572;SDS011;59408;51.032;9.410;2022-09-03T11:57:50;4.68;;;1.90;;
71572;SDS011;59408;51.032;9.410;2022-09-03T12:00:17;4.17;;;1.47;;
71572;SDS011;59408;51.032;9.410;2022-09-03T12:02:45;5.88;;;1.90;;
71572;SDS011;59408;51.032;9.410;2022-09-03T12:05:17;4.68;;;1.90;;
71572;SDS011;59408;51.032;9.410;2022-09-03T12:07:55;4.15;;;1.60;;
71572;SDS011;59408;51.032;9.410;2022-09-03T12:10:36;4.63;;;1.90;;
71572;SDS011;59408;51.032;9.410;2022-09-03T12:13:16;4.77;;;1.70;;
71572;SDS011;59408;51.032;9.410;2022-09-03T12:16:11;5.18;;;1.70;;
71572;SDS011;59408;51.032;9.410;2022-09-03T12:18:47;4.18;;;2.00;;
71572;SDS011;59408;51.032;9.410;2022-09-03T12:21:15;3.63;;;1.40;;
71572;SDS011;59408;51.032;9.410;2022-09-03T12:23:44;4.65;;;2.03;;
71572;SDS011;59408;51.032;9.410;2022-09-03T12:26:14;4.10;;;1.63;;
71572;SDS011;59408;51.032;9.410;2022-09-03T12:28:43;4.23;;;1.40;;
71572;SDS011;59408;51.032;9.410;2022-09-03T12:31:14;4.03;;;1.60;;
71572;SDS011;59408;51.032;9.410;2022-09-03T12:33:41;4.97;;;1.70;;
71572;SDS011;59408;51.032;9.410;2022-09-03T12:36:08;3.83;;;1.80;;
71572;SDS011;59408;51.032;9.410;2022-09-03T12:38:35;6.90;;;1.70;;
71572;SDS011;59408;51.032;9.410;2022-09-03T12:41:24;4.77;;;1.90;;
71572;SDS011;59408;51.032;9.410;2022-09-03T12:43:54;4.70;;;2.00;;
71572;SDS011;59408;51.032;9.410;2022-09-03T12:46:22;6.43;;;2.25;;
71572;SDS011;59408;51.032;9.410;2022-09-03T12:49:00;5.22;;;2.10;;
71572;SDS011;59408;51.032;9.410;2022-09-03T12:51:47;4.72;;;1.80;;
71572;SDS011;59408;51.032;9.410;2022-09-03T12:54:21;4.37;;;2.10;;
71572;SDS011;59408;51.032;9.410;2022-09-03T12:56:52;4.63;;;1.85;;
71572;SDS011;59408;51.032;9.410;2022-09-03T12:59:21;4.20;;;1.70;;
71572;SDS011;59408;51.032;9.410;2022-09-03T13:01:53;3.92;;;1.60;;
71572;SDS011;59408;51.032;9.410;2022-09-03T13:04:28;4.75;;;1.92;;
71572;SDS011;59408;51.032;9.410;2022-09-03T13:06:59;6.17;;;1.60;;
71572;SDS011;59408;51.032;9.410;2022-09-03T13:09:28;4.43;;;1.90;;
71572;SDS011;59408;51.032;9.410;2022-09-03T13:11:59;6.40;;;2.55;;
71572;SDS011;59408;51.032;9.410;2022-09-03T13:14:26;8.45;;;3.53;;
71572;SDS011;59408;51.032;9.410;2022-09-03T13:17:05;9.52;;;6.07;;
71572;SDS011;59408;51.032;9.410;2022-09-03T13:19:45;17.42;;;10.05;;
71572;SDS011;59408;51.032;9.410;2022-09-03T13:22:23;14.83;;;8.17;;
71572;SDS011;59408;51.032;9.410;2022-09-03T13:25:00;12.33;;;4.50;;
71572;SDS011;59408;51.032;9.410;2022-09-03T13:27:41;10.43;;;3.92;;
71572;SDS011;59408;51.032;9.410;2022-09-03T13:30:18;12.85;;;6.82;;
71572;SDS011;59408;51.032;9.410;2022-09-03T13:32:50;14.90;;;9.38;;
71572;SDS011;59408;51.032;9.410;2022-09-03T13:35:27;16.33;;;7.80;;
71572;SDS011;59408;51.032;9.410;2022-09-03T13:37:59;11.13;;;3.70;;
71572;SDS011;59408;51.032;9.410;2022-09-03T13:40:34;6.80;;;2.40;;
71572;SDS011;59408;51.032;9.410;2022-09-03T13:43:20;5.75;;;2.15;;
71572;SDS011;59408;51.032;9.410;2022-09-03T13:45:54;4.78;;;1.90;;
71572;SDS011;59408;51.032;9.410;2022-09-03T13:48:25;4.82;;;1.73;;
71572;SDS011;59408;51.032;9.410;2022-09-03T13:51:01;4.05;;;1.90;;
71572;SDS011;59408;51.032;9.410;2022-09-03T13:53:39;7.47;;;4.20;;
71572;SDS011;59408;51.032;9.410;2022-09-03T13:56:15;6.00;;;2.50;;
71572;SDS011;59408;51.032;9.410;2022-09-03T13:58:49;5.95;;;2.40;;
71572;SDS011;59408;51.032;9.410;2022-09-03T14:01:22;5.30;;;2.22;;
71572;SDS011;59408;51.032;9.410;2022-09-03T14:03:53;5.00;;;2.42;;
71572;SDS011;59408;51.032;9.410;2022-09-03T14:06:30;5.35;;;2.60;;
71572;SDS011;59408;51.032;9.410;2022-09-03T14:09:11;4.17;;;1.90;;
71572;SDS011;59408;51.032;9.410;2022-09-03T14:11:46;4.87;;;2.00;;
71572;SDS011;59408;51.032;9.410;2022-09-03T14:14:22;4.85;;;1.80;;
71572;SDS011;59408;51.032;9.410;2022-09-03T14:17:01;6.57;;;2.25;;
71572;SDS011;59408;51.032;9.410;2022-09-03T14:19:37;6.97;;;3.83;;
71572;SDS011;59408;51.032;9.410;2022-09-03T14:22:12;8.05;;;3.40;;
71572;SDS011;59408;51.032;9.410;2022-09-03T14:24:43;4.40;;;2.20;;
71572;SDS011;59408;51.032;9.410;2022-09-03T14:27:21;5.07;;;1.93;;
71572;SDS011;59408;51.032;9.410;2022-09-03T14:29:52;4.32;;;1.88;;
71572;SDS011;59408;51.032;9.410;2022-09-03T14:32:26;4.68;;;2.20;;
71572;SDS011;59408;51.032;9.410;2022-09-03T14:34:59;5.22;;;2.10;;
71572;SDS011;59408;51.032;9.410;2022-09-03T14:37:47;4.82;;;2.00;;
71572;SDS011;59408;51.032;9.410;2022-09-03T14:40:34;4.23;;;1.70;;
71572;SDS011;59408;51.032;9.410;2022-09-03T14:43:11;4.40;;;1.87;;
71572;SDS011;59408;51.032;9.410;2022-09-03T14:45:52;4.43;;;1.73;;
71572;SDS011;59408;51.032;9.410;2022-09-03T14:48:36;5.45;;;1.98;;
71572;SDS011;59408;51.032;9.410;2022-09-03T14:51:17;6.80;;;1.90;;
71572;SDS011;59408;51.032;9.410;2022-09-03T14:54:09;4.13;;;2.10;;
71572;SDS011;59408;51.032;9.410;2022-09-03T14:56:49;5.10;;;2.40;;
71572;SDS011;59408;51.032;9.410;2022-09-03T15:02:28;6.00;;;2.70;;
71572;SDS011;59408;51.032;9.410;2022-09-03T15:05:27;5.30;;;2.30;;
71572;SDS011;59408;51.032;9.410;2022-09-03T15:08:08;5.30;;;2.58;;
71572;SDS011;59408;51.032;9.410;2022-09-03T15:10:44;5.20;;;2.13;;
71572;SDS011;59408;51.032;9.410;2022-09-03T15:13:21;4.55;;;2.00;;
71572;SDS011;59408;51.032;9.410;2022-09-03T15:15:55;6.07;;;1.90;;
71572;SDS011;59408;51.032;9.410;2022-09-03T15:18:45;5.57;;;1.90;;
71572;SDS011;59408;51.032;9.410;2022-09-03T15:21:26;4.63;;;1.70;;
71572;SDS011;59408;51.032;9.410;2022-09-03T15:24:05;4.50;;;1.83;;
71572;SDS011;59408;51.032;9.410;2022-09-03T15:26:42;4.50;;;1.90;;